Time;durP1;ratioP1;P1;durP2;ratioP2;P2;SDS_P1;SDS_P2;PMS_P1;PMS_P2;Temp;Humidity;BMP_temperature;BMP_pressure;BME280_temperature;BME280_humidity;BME280_pressure;Samples;Min_cycle;Max_cycle;Signal;HPM_P1;HPM_P2
2023/06/14 00:03:29;;;;;;;3.90;2.15;;;;;;;14.31;64.16;101103.47;4966691;28;20050;-57
2023/06/14 00:05:56;;;;;;;2.65;2.00;;;;;;;14.28;64.18;101106.34;4976781;28;20122;-58
2023/06/14 00:08:25;;;;;;;10.98;2.58;;;;;;;14.28;64.36;101106.34;4979625;28;20137;-58
2023/06/14 00:10:52;;;;;;;9.27;3.08;;;;;;;14.26;65.64;101102.91;4972034;28;20051;-58
2023/06/14 00:13:20;;;;;;;5.68;2.90;;;;;;;14.26;65.74;101105.56;4971345;28;20054;-59
2023/06/14 00:15:47;;;;;;;8.73;2.97;;;;;;;14.25;65.64;101109.19;4970051;28;20299;-57
2023/06/14 00:18:14;;;;;;;5.55;2.47;;;;;;;14.25;65.99;101106.53;4971732;28;20158;-58
2023/06/14 00:20:42;;;;;;;5.18;2.25;;;;;;;14.24;66.79;101110.13;4972358;28;20051;-59
2023/06/14 00:23:10;;;;;;;3.28;2.20;;;;;;;14.22;66.73;101113.81;4955893;28;20375;-57
2023/06/14 00:25:37;;;;;;;2.92;2.22;;;;;;;14.18;66.78;101108.75;4961374;28;20058;-54
2023/06/14 00:28:04;;;;;;;3.50;2.63;;;;;;;14.17;67.26;101106.19;4958374;28;20054;-55
2023/06/14 00:30:32;;;;;;;5.13;2.45;;;;;;;14.16;67.60;101112.44;4966212;28;20054;-53
2023/06/14 00:32:59;;;;;;;4.63;2.88;;;;;;;14.14;67.75;101111.72;4961845;28;20141;-56
2023/06/14 00:35:26;;;;;;;3.03;2.22;;;;;;;14.15;68.02;101108.09;4974514;28;20059;-56
2023/06/14 00:37:54;;;;;;;3.78;2.40;;;;;;;14.12;67.68;101109.13;4966336;28;20133;-57
2023/06/14 00:40:22;;;;;;;6.95;2.50;;;;;;;14.11;68.30;101112.75;4965358;28;20066;-53
2023/06/14 00:42:49;;;;;;;3.90;2.70;;;;;;;14.08;68.17;101112.94;4966542;28;20086;-57
2023/06/14 00:45:16;;;;;;;5.07;3.10;;;;;;;14.09;68.77;101114.63;4952748;28;20054;-57
2023/06/14 00:47:46;;;;;;;4.25;2.63;;;;;;;14.05;69.42;101115.81;4966578;28;20513;-57
2023/06/14 00:50:13;;;;;;;5.75;2.72;;;;;;;14.02;69.68;101113.34;4972434;28;20141;-55
2023/06/14 00:52:40;;;;;;;4.78;2.83;;;;;;;14.00;70.28;101117.03;4973467;28;20153;-56
2023/06/14 00:55:08;;;;;;;4.63;2.90;;;;;;;13.94;70.07;101108.53;4935309;28;20142;-58
2023/06/14 00:57:37;;;;;;;4.45;2.85;;;;;;;13.96;70.69;101111.13;4961805;28;20162;-55
2023/06/14 01:00:09;;;;;;;5.22;3.58;;;;;;;13.97;71.23;101109.31;4971415;28;20681;-59
2023/06/14 01:02:37;;;;;;;5.10;3.55;;;;;;;13.95;71.26;101109.38;4963212;28;20051;-54
2023/06/14 01:05:09;;;;;;;7.53;3.83;;;;;;;13.94;71.32;101115.63;4964335;28;20047;-56
2023/06/14 01:07:46;;;;;;;7.07;3.05;;;;;;;13.90;72.04;101104.41;4968392;28;20062;-55
2023/06/14 01:10:35;;;;;;;5.65;3.35;;;;;;;13.91;72.56;101105.25;4963256;28;20438;-58
2023/06/14 01:13:24;;;;;;;13.25;4.05;;;;;;;13.88;72.58;101105.47;4967063;28;20073;-53
2023/06/14 01:15:52;;;;;;;5.00;3.47;;;;;;;13.86;73.28;101112.63;4970755;28;20141;-55
2023/06/14 01:18:19;;;;;;;5.68;3.53;;;;;;;13.80;73.49;101105.09;4951957;28;20161;-54
2023/06/14 01:20:50;;;;;;;6.68;3.60;;;;;;;13.77;73.58;101107.94;4964750;28;20057;-56
2023/06/14 01:23:21;;;;;;;5.60;3.28;;;;;;;13.76;73.72;101106.25;4951273;28;20047;-58
2023/06/14 01:25:52;;;;;;;7.82;3.58;;;;;;;13.76;74.27;101108.91;4970392;28;20064;-57
2023/06/14 01:28:21;;;;;;;5.60;3.67;;;;;;;13.73;73.97;101109.09;4970252;28;20138;-58
2023/06/14 01:30:51;;;;;;;7.47;3.97;;;;;;;13.71;74.64;101103.91;4949922;28;20063;-55
2023/06/14 01:33:23;;;;;;;4.63;3.53;;;;;;;13.72;74.59;101104.75;4949630;28;20130;-55
2023/06/14 01:35:52;;;;;;;6.15;3.95;;;;;;;13.72;74.52;101105.59;4967838;28;20146;-58
2023/06/14 01:38:21;;;;;;;5.55;4.43;;;;;;;13.72;74.42;101107.41;4963604;28;20145;-58
2023/06/14 01:40:50;;;;;;;7.07;4.03;;;;;;;13.69;74.68;101100.53;4953757;28;20085;-56
2023/06/14 01:43:18;;;;;;;8.50;4.18;;;;;;;13.68;75.18;101102.28;4970011;28;20054;-57
2023/06/14 01:45:48;;;;;;;5.53;3.42;;;;;;;13.67;74.93;101097.94;4953652;28;20137;-53
2023/06/14 01:48:16;;;;;;;5.85;3.65;;;;;;;13.66;75.17;101098.06;4955612;28;20050;-56
2023/06/14 01:50:43;;;;;;;9.85;4.50;;;;;;;13.65;75.25;101099.00;4958753;28;20050;-55
2023/06/14 01:53:10;;;;;;;8.38;3.92;;;;;;;13.63;75.18;101107.03;4962299;28;20047;-55
2023/06/14 01:55:37;;;;;;;4.82;3.40;;;;;;;13.62;75.34;101109.78;4965929;28;20130;-55
2023/06/14 01:58:05;;;;;;;6.60;4.57;;;;;;;13.61;75.32;101105.44;4960014;28;20154;-55
2023/06/14 02:00:32;;;;;;;6.30;3.63;;;;;;;13.57;75.85;101114.53;4966445;28;20159;-53
2023/06/14 02:03:00;;;;;;;5.13;3.55;;;;;;;13.56;76.14;101108.38;4971331;28;20051;-56
2023/06/14 02:05:27;;;;;;;5.97;4.10;;;;;;;13.54;76.27;101106.78;4972867;28;20419;-57
2023/06/14 02:07:55;;;;;;;8.55;5.35;;;;;;;13.54;76.90;101114.72;4966403;28;21281;-54
2023/06/14 02:10:22;;;;;;;7.05;4.40;;;;;;;13.51;76.96;101113.13;4967535;28;20054;-56
2023/06/14 02:12:49;;;;;;;6.72;3.97;;;;;;;13.50;77.21;101113.19;4966349;28;20050;-53
2023/06/14 02:15:18;;;;;;;6.22;4.47;;;;;;;13.47;77.31;101127.50;4965284;28;20074;-55
2023/06/14 02:17:49;;;;;;;7.20;4.00;;;;;;;13.46;77.46;101122.28;4962840;28;20062;-54
2023/06/14 02:20:16;;;;;;;7.55;4.70;;;;;;;13.45;77.49;101117.94;4950783;28;20070;-54
2023/06/14 02:23:08;;;;;;;7.78;4.05;;;;;;;13.44;77.66;101119.72;4962350;28;20070;-55
2023/06/14 02:25:35;;;;;;;7.00;4.80;;;;;;;13.43;78.04;101115.41;4964582;28;20063;-54
2023/06/14 02:28:03;;;;;;;8.57;4.00;;;;;;;13.42;77.48;101121.63;4961549;28;20502;-54
2023/06/14 02:30:30;;;;;;;8.38;4.05;;;;;;;13.42;77.76;101119.00;4967541;28;20070;-57
2023/06/14 02:32:58;;;;;;;5.90;3.90;;;;;;;13.39;78.63;101121.81;4967791;28;20051;-55
2023/06/14 02:35:27;;;;;;;8.18;4.38;;;;;;;13.37;78.09;101121.06;4972893;28;20062;-56
2023/06/14 02:37:54;;;;;;;8.50;4.13;;;;;;;13.36;78.86;101125.50;4961939;28;20392;-56
2023/06/14 02:40:22;;;;;;;8.23;4.90;;;;;;;13.36;78.75;101119.34;4964080;28;20051;-54
2023/06/14 02:42:49;;;;;;;6.80;4.07;;;;;;;13.35;78.79;101122.97;4968796;28;20181;-56
2023/06/14 02:45:17;;;;;;;6.55;4.38;;;;;;;13.32;78.87;101123.13;4969494;28;20046;-53
2023/06/14 02:47:45;;;;;;;6.55;3.78;;;;;;;13.30;79.31;101125.03;4962349;28;20078;-53
2023/06/14 02:50:13;;;;;;;7.88;5.43;;;;;;;13.25;78.99;101133.25;4962249;28;20055;-53
2023/06/14 02:52:44;;;;;;;9.15;5.45;;;;;;;13.22;79.47;101127.28;4966454;28;20101;-54
2023/06/14 02:55:11;;;;;;;7.43;4.90;;;;;;;13.20;79.69;101127.38;4966018;28;20646;-57
2023/06/14 02:57:39;;;;;;;5.22;4.50;;;;;;;13.21;79.39;101126.44;4962226;28;20061;-53
2023/06/14 03:00:09;;;;;;;6.20;4.03;;;;;;;13.21;79.90;101123.78;4958284;28;20070;-58
2023/06/14 03:02:37;;;;;;;9.73;5.25;;;;;;;13.23;79.97;101129.00;4955055;28;20051;-56
2023/06/14 03:05:06;;;;;;;5.30;4.10;;;;;;;13.22;79.83;101117.56;4974504;28;20048;-55
2023/06/14 03:07:34;;;;;;;8.00;4.85;;;;;;;13.24;79.74;101114.81;4971213;28;20430;-58
2023/06/14 03:10:03;;;;;;;7.88;4.72;;;;;;;13.24;79.86;101120.13;4963930;28;20153;-58
2023/06/14 03:12:31;;;;;;;5.63;4.43;;;;;;;13.22;79.69;101117.56;4965185;28;20464;-59
2023/06/14 03:15:01;;;;;;;7.10;4.80;;;;;;;13.22;79.88;101116.69;4972832;28;20431;-57
2023/06/14 03:17:32;;;;;;;11.70;4.95;;;;;;;13.20;79.36;101115.97;4975739;28;20051;-57
2023/06/14 03:20:00;;;;;;;8.90;4.75;;;;;;;13.21;79.31;101115.00;4969163;28;20059;-54
2023/06/14 03:22:28;;;;;;;6.68;3.65;;;;;;;13.22;78.85;101117.56;4970664;28;20451;-51
2023/06/14 03:24:56;;;;;;;6.78;4.07;;;;;;;13.23;78.96;101121.91;4965571;28;20542;-54
2023/06/14 03:27:24;;;;;;;9.05;5.00;;;;;;;13.25;79.09;101130.63;4964066;28;20058;-53
2023/06/14 03:29:51;;;;;;;6.13;4.40;;;;;;;13.26;79.29;101129.66;4970844;28;20054;-55
2023/06/14 03:32:18;;;;;;;8.82;5.35;;;;;;;13.30;78.93;101125.88;4966141;28;20050;-55
2023/06/14 03:34:46;;;;;;;8.63;4.80;;;;;;;13.36;79.38;101127.28;4965627;28;20053;-56
2023/06/14 03:37:13;;;;;;;7.70;4.53;;;;;;;13.38;79.31;101117.50;4965656;28;20059;-56
2023/06/14 03:39:46;;;;;;;9.15;4.97;;;;;;;13.39;79.35;101132.41;4960033;28;20150;-54
2023/06/14 03:42:14;;;;;;;9.20;5.03;;;;;;;13.41;78.61;101126.06;4946540;28;20047;-54
2023/06/14 03:44:42;;;;;;;7.18;5.10;;;;;;;13.45;78.92;101128.50;4927390;28;20101;-54
2023/06/14 03:47:09;;;;;;;9.95;4.53;;;;;;;13.43;78.63;101126.81;4975988;28;20061;-52
2023/06/14 03:49:36;;;;;;;8.38;5.88;;;;;;;13.43;78.75;101131.28;4954594;28;20055;-53
2023/06/14 03:52:04;;;;;;;7.25;4.80;;;;;;;13.43;78.65;101137.41;4959562;28;20055;-58
2023/06/14 03:54:34;;;;;;;10.85;4.53;;;;;;;13.47;78.28;101135.41;4960297;28;20059;-55
2023/06/14 03:57:05;;;;;;;5.68;4.45;;;;;;;13.48;78.56;101138.91;4960878;28;20054;-57
2023/06/14 03:59:33;;;;;;;8.95;4.68;;;;;;;13.48;78.22;101142.41;4947405;28;20055;-53
2023/06/14 04:02:00;;;;;;;8.63;5.05;;;;;;;13.54;78.10;101143.81;4962600;28;20225;-56
2023/06/14 04:04:29;;;;;;;8.30;4.25;;;;;;;13.62;78.01;101149.47;4961728;28;20150;-56
2023/06/14 04:06:58;;;;;;;8.82;4.57;;;;;;;13.69;77.90;101153.44;4963931;28;20062;-57
2023/06/14 04:09:25;;;;;;;10.70;5.25;;;;;;;13.75;78.22;101154.84;4959639;28;20099;-56
2023/06/14 04:11:53;;;;;;;11.27;5.22;;;;;;;13.79;78.09;101151.06;4959287;28;20102;-53
2023/06/14 04:14:20;;;;;;;11.65;5.18;;;;;;;13.86;77.66;101152.34;4963846;28;20057;-54
2023/06/14 04:16:48;;;;;;;5.88;4.43;;;;;;;13.90;77.52;101159.97;4964769;28;20520;-57
2023/06/14 04:19:16;;;;;;;9.27;5.47;;;;;;;13.97;77.61;101155.16;4967116;28;20133;-56
2023/06/14 04:21:43;;;;;;;7.07;5.10;;;;;;;14.04;77.33;101158.25;4952120;28;20134;-56
2023/06/14 04:24:13;;;;;;;9.70;5.75;;;;;;;14.10;77.01;101161.34;4964972;28;20186;-57
2023/06/14 04:26:44;;;;;;;12.85;5.75;;;;;;;14.16;76.84;101158.28;4965137;28;20067;-54
2023/06/14 04:29:16;;;;;;;13.75;5.93;;;;;;;14.20;76.80;101156.31;4963609;28;20081;-52
2023/06/14 04:31:44;;;;;;;6.93;5.22;;;;;;;14.23;76.60;101163.19;4965811;28;20102;-57
2023/06/14 04:34:18;;;;;;;7.93;5.55;;;;;;;14.26;76.56;101157.69;4968074;28;20046;-55
2023/06/14 04:36:53;;;;;;;14.88;5.65;;;;;;;14.30;76.36;101162.69;4960627;28;20410;-56
2023/06/14 04:39:21;;;;;;;17.80;5.60;;;;;;;14.34;76.35;101158.03;4946463;28;20498;-57
2023/06/14 04:41:52;;;;;;;6.30;5.10;;;;;;;14.36;76.50;101153.47;4964828;28;20074;-54
2023/06/14 04:44:20;;;;;;;7.72;5.30;;;;;;;14.41;76.06;101154.91;4964708;28;20050;-53
2023/06/14 04:46:47;;;;;;;6.60;5.47;;;;;;;14.47;76.20;101150.97;4963981;28;20050;-56
2023/06/14 04:49:15;;;;;;;11.00;5.93;;;;;;;14.54;75.87;101156.72;4956584;28;20055;-56
2023/06/14 04:51:44;;;;;;;7.68;4.63;;;;;;;14.61;75.68;101156.22;4958032;28;20542;-53
2023/06/14 04:54:14;;;;;;;12.23;5.40;;;;;;;14.69;75.50;101166.31;4960271;28;20066;-54
2023/06/14 04:56:42;;;;;;;8.25;5.50;;;;;;;14.74;75.01;101158.91;4960012;28;20054;-55
2023/06/14 04:59:11;;;;;;;11.60;5.60;;;;;;;14.82;75.05;101153.94;4954296;28;20091;-56
2023/06/14 05:01:40;;;;;;;10.63;5.18;;;;;;;14.86;74.94;101157.19;4956772;28;20150;-57
2023/06/14 05:04:07;;;;;;;9.65;5.75;;;;;;;14.96;74.81;101165.41;4957087;28;20051;-56
2023/06/14 05:06:36;;;;;;;9.32;5.88;;;;;;;15.00;74.43;101162.44;4960340;28;20066;-57
2023/06/14 05:09:03;;;;;;;6.97;5.43;;;;;;;15.02;74.16;101170.28;4955868;28;20066;-55
2023/06/14 05:11:31;;;;;;;7.72;4.88;;;;;;;15.01;74.08;101164.13;4952204;28;20125;-56
2023/06/14 05:13:58;;;;;;;9.85;4.93;;;;;;;15.04;73.69;101160.38;4955592;28;20102;-56
2023/06/14 05:16:27;;;;;;;8.93;5.18;;;;;;;15.07;73.66;101161.03;4960760;28;20070;-57
2023/06/14 05:18:55;;;;;;;8.45;4.85;;;;;;;15.15;73.74;101166.66;4957538;28;20066;-52
2023/06/14 05:21:22;;;;;;;7.22;5.22;;;;;;;15.29;73.28;101168.34;4971182;28;20728;-58
2023/06/14 05:23:51;;;;;;;7.15;4.38;;;;;;;15.45;72.76;101173.44;4954634;28;20047;-59
2023/06/14 05:26:18;;;;;;;7.38;5.18;;;;;;;15.60;72.58;101182.97;4958516;28;20069;-55
2023/06/14 05:28:46;;;;;;;10.35;6.07;;;;;;;15.73;71.81;101185.63;4958025;28;20919;-57
2023/06/14 05:31:13;;;;;;;8.13;4.95;;;;;;;15.87;71.45;101180.16;4959340;28;20134;-52
2023/06/14 05:33:40;;;;;;;7.20;5.03;;;;;;;15.97;71.16;101185.66;4959402;28;21264;-54
2023/06/14 05:36:08;;;;;;;11.57;4.30;;;;;;;16.07;70.76;101188.47;4955706;28;20706;-59
2023/06/14 05:38:35;;;;;;;13.23;5.05;;;;;;;16.18;70.19;101191.22;4945437;28;20051;-53
2023/06/14 05:41:02;;;;;;;9.63;4.68;;;;;;;16.24;69.77;101189.91;4961058;28;20078;-57
2023/06/14 05:43:29;;;;;;;22.88;5.30;;;;;;;16.32;69.47;101184.88;4963690;28;20062;-57
2023/06/14 05:45:57;;;;;;;9.55;5.05;;;;;;;16.38;68.90;101189.72;4956700;28;20177;-54
2023/06/14 05:48:24;;;;;;;10.00;5.03;;;;;;;16.42;68.84;101199.16;4956809;28;20400;-55
2023/06/14 05:50:51;;;;;;;7.15;5.03;;;;;;;16.46;68.74;101187.34;4940453;28;20676;-56
2023/06/14 05:53:18;;;;;;;14.00;6.22;;;;;;;16.51;68.50;101192.31;4962778;28;20051;-58
2023/06/14 05:55:45;;;;;;;12.32;6.03;;;;;;;16.59;68.27;101200.56;4968413;28;20054;-54
2023/06/14 05:58:13;;;;;;;11.23;5.15;;;;;;;16.64;67.91;101206.41;4965930;28;20189;-56
2023/06/14 06:00:40;;;;;;;12.63;5.32;;;;;;;16.69;67.73;101205.06;4960121;28;20066;-57
2023/06/14 06:03:09;;;;;;;10.35;5.13;;;;;;;16.71;67.55;101204.97;4968367;28;20139;-55
2023/06/14 06:05:36;;;;;;;10.38;5.63;;;;;;;16.69;67.18;101202.41;4972191;28;20562;-58
2023/06/14 06:08:03;;;;;;;10.80;5.32;;;;;;;16.71;67.06;101204.97;4946285;28;20137;-58
2023/06/14 06:10:31;;;;;;;10.55;5.00;;;;;;;16.71;66.94;101199.66;4959270;28;20094;-54
2023/06/14 06:12:58;;;;;;;8.27;5.00;;;;;;;16.75;66.81;101200.28;4959950;28;20057;-55
2023/06/14 06:15:25;;;;;;;12.02;4.88;;;;;;;16.76;66.85;101202.00;4966301;28;20055;-58
2023/06/14 06:17:53;;;;;;;12.82;5.03;;;;;;;16.73;66.75;101203.06;4964590;28;20047;-55
2023/06/14 06:20:28;;;;;;;13.10;5.35;;;;;;;16.71;66.82;101197.84;4971934;28;20400;-56
2023/06/14 06:22:57;;;;;;;12.27;5.07;;;;;;;16.74;66.84;101201.25;4973506;28;20427;-57
2023/06/14 06:25:28;;;;;;;10.30;5.03;;;;;;;16.76;66.68;101202.84;4952318;28;20051;-57
2023/06/14 06:27:58;;;;;;;9.90;5.22;;;;;;;16.78;66.72;101197.41;4938683;28;20399;-58
2023/06/14 06:30:25;;;;;;;6.75;4.53;;;;;;;16.78;66.64;101195.59;4959329;28;20059;-57
2023/06/14 06:32:53;;;;;;;7.03;4.38;;;;;;;16.83;66.54;101197.91;4961635;28;20077;-59
2023/06/14 06:35:20;;;;;;;15.30;5.53;;;;;;;16.86;66.38;101205.66;4953113;28;20059;-54
2023/06/14 06:37:47;;;;;;;14.00;5.18;;;;;;;16.86;66.36;101195.88;4961964;28;20054;-55
2023/06/14 06:40:15;;;;;;;6.60;4.35;;;;;;;16.89;66.52;101194.78;4970457;28;20054;-56
2023/06/14 06:42:42;;;;;;;9.65;4.80;;;;;;;16.89;66.39;101202.78;4969634;28;20511;-57
2023/06/14 06:45:10;;;;;;;10.25;5.30;;;;;;;16.93;66.15;101198.88;4965458;28;20099;-57
2023/06/14 06:47:37;;;;;;;9.65;5.13;;;;;;;16.98;65.96;101207.38;4963984;28;20975;-59
2023/06/14 06:50:06;;;;;;;20.38;5.32;;;;;;;17.06;65.96;101207.63;4963291;28;20133;-54
2023/06/14 06:52:33;;;;;;;8.85;4.38;;;;;;;17.18;65.63;101204.03;4964773;28;20178;-58
2023/06/14 06:55:02;;;;;;;10.55;4.65;;;;;;;17.31;65.31;101208.41;4967949;28;20047;-57
2023/06/14 06:57:29;;;;;;;15.75;5.38;;;;;;;17.41;65.04;101212.03;4961764;28;20141;-57
2023/06/14 06:59:57;;;;;;;8.00;4.30;;;;;;;17.49;64.92;101212.28;4966049;28;20051;-58
2023/06/14 07:02:24;;;;;;;8.70;4.53;;;;;;;17.62;64.54;101213.00;4960185;28;20713;-58
2023/06/14 07:04:51;;;;;;;12.63;5.20;;;;;;;17.75;64.08;101228.06;4955840;28;20043;-57
2023/06/14 07:07:19;;;;;;;7.20;4.30;;;;;;;17.86;63.58;101231.53;4961549;28;20231;-58
2023/06/14 07:09:46;;;;;;;9.13;4.65;;;;;;;18.01;62.97;101226.78;4958833;28;20654;-56
2023/06/14 07:12:13;;;;;;;7.80;4.57;;;;;;;18.12;62.55;101229.44;4955479;28;20063;-55
2023/06/14 07:14:41;;;;;;;8.05;4.45;;;;;;;18.25;62.35;101225.78;4951366;28;20138;-55
2023/06/14 07:17:08;;;;;;;11.70;4.47;;;;;;;18.34;61.61;101241.03;4959958;28;20047;-58
2023/06/14 07:19:35;;;;;;;8.63;3.85;;;;;;;18.41;61.39;101231.53;4958089;28;20630;-58
2023/06/14 07:22:03;;;;;;;11.60;4.82;;;;;;;18.50;60.97;101227.28;4966464;28;20154;-57
2023/06/14 07:24:30;;;;;;;13.55;5.13;;;;;;;18.60;60.93;101231.72;4962616;28;20081;-56
2023/06/14 07:26:57;;;;;;;10.10;4.55;;;;;;;18.70;60.62;101227.34;4966575;28;20146;-57
2023/06/14 07:29:26;;;;;;;8.88;4.55;;;;;;;18.85;59.90;101235.88;4959804;28;20081;-57
2023/06/14 07:31:53;;;;;;;9.20;5.00;;;;;;;19.01;59.60;101239.94;4957866;28;22115;-57
2023/06/14 07:34:20;;;;;;;8.27;4.57;;;;;;;19.28;59.14;101239.41;4964122;28;20069;-57
2023/06/14 07:36:48;;;;;;;10.07;4.65;;;;;;;19.57;58.34;101245.72;4961735;28;20503;-56
2023/06/14 07:39:15;;;;;;;9.30;4.25;;;;;;;19.81;57.56;101242.75;4963726;28;20786;-58
2023/06/14 07:41:42;;;;;;;7.97;4.50;;;;;;;19.95;57.00;101246.91;4961220;28;20042;-58
2023/06/14 07:44:10;;;;;;;8.77;4.10;;;;;;;20.09;56.45;101249.19;4967007;28;20149;-57
2023/06/14 07:46:38;;;;;;;8.63;4.43;;;;;;;20.27;56.13;101237.84;4959392;28;20043;-59
2023/06/14 07:49:05;;;;;;;11.05;4.38;;;;;;;20.43;55.38;101247.00;4963437;28;20054;-57
2023/06/14 07:51:33;;;;;;;8.93;3.85;;;;;;;20.59;54.99;101241.13;4964389;28;20123;-57
2023/06/14 07:54:02;;;;;;;10.27;4.00;;;;;;;20.68;54.26;101240.28;4970787;28;20077;-54
2023/06/14 07:56:29;;;;;;;13.45;4.53;;;;;;;20.68;54.03;101245.63;4964960;28;20057;-58
2023/06/14 07:58:56;;;;;;;11.68;4.15;;;;;;;20.79;53.97;101243.81;4973702;28;20150;-56
2023/06/14 08:01:25;;;;;;;12.70;3.97;;;;;;;20.98;53.34;101233.94;4963452;28;20583;-58
2023/06/14 08:03:52;;;;;;;6.03;3.33;;;;;;;21.19;52.96;101236.41;4954298;28;20046;-57
2023/06/14 08:06:20;;;;;;;9.18;3.70;;;;;;;21.21;51.65;101225.59;4964780;28;20399;-57
2023/06/14 08:08:47;;;;;;;11.48;3.97;;;;;;;21.09;52.17;101222.22;4960829;28;20460;-55
2023/06/14 08:11:15;;;;;;;8.82;3.47;;;;;;;20.98;52.31;101225.03;4967919;28;20863;-59
2023/06/14 08:13:42;;;;;;;12.25;4.00;;;;;;;20.84;52.44;101218.28;4961334;28;20054;-57
2023/06/14 08:16:09;;;;;;;8.18;3.88;;;;;;;20.78;52.85;101226.06;4955719;28;20064;-57
2023/06/14 08:18:36;;;;;;;9.93;3.97;;;;;;;20.81;52.88;101223.97;4960041;28;20051;-58
2023/06/14 08:21:04;;;;;;;16.35;3.75;;;;;;;20.91;52.73;101230.13;4951410;28;20141;-58
2023/06/14 08:23:31;;;;;;;6.80;3.53;;;;;;;21.07;51.93;101226.00;4959073;28;20050;-57
2023/06/14 08:26:01;;;;;;;7.18;3.75;;;;;;;21.31;51.39;101230.91;4959203;28;20694;-58
2023/06/14 08:28:28;;;;;;;11.05;3.60;;;;;;;21.58;51.08;101222.09;4964809;28;20062;-55
2023/06/14 08:30:55;;;;;;;9.63;4.05;;;;;;;21.94;50.41;101233.78;4955216;28;20055;-58
2023/06/14 08:33:23;;;;;;;6.10;4.10;;;;;;;22.27;49.26;101229.66;4963438;28;20075;-56
2023/06/14 08:35:50;;;;;;;12.20;3.80;;;;;;;22.41;48.61;101229.13;4959554;28;20524;-58
2023/06/14 08:38:17;;;;;;;9.80;3.67;;;;;;;22.33;48.59;101228.19;4961840;28;20082;-57
2023/06/14 08:40:48;;;;;;;8.75;3.40;;;;;;;22.13;48.72;101232.84;4962587;28;20109;-64
2023/06/14 08:43:15;;;;;;;6.25;2.78;;;;;;;21.92;48.66;101223.19;4948500;28;20055;-56
2023/06/14 08:45:43;;;;;;;9.90;3.67;;;;;;;21.80;48.69;101220.88;4955670;28;20058;-58
2023/06/14 08:48:11;;;;;;;6.82;3.13;;;;;;;21.73;48.69;101215.25;4961212;28;20051;-56
2023/06/14 08:50:41;;;;;;;4.80;3.28;;;;;;;21.74;48.51;101227.66;4953739;28;20061;-56
2023/06/14 08:53:11;;;;;;;6.57;3.35;;;;;;;21.87;48.26;101230.00;4970385;28;20476;-58
2023/06/14 08:55:39;;;;;;;8.50;3.88;;;;;;;22.00;47.65;101219.78;4967705;28;20129;-58
2023/06/14 08:58:14;;;;;;;13.50;2.60;;;;;;;22.21;47.53;101222.22;4972733;28;20056;-58
2023/06/14 09:00:42;;;;;;;4.88;2.67;;;;;;;22.37;47.14;101222.38;4963547;28;20079;-57
2023/06/14 09:03:13;;;;;;;6.70;3.10;;;;;;;22.49;47.13;101229.22;4951385;28;20065;-56
2023/06/14 09:05:40;;;;;;;4.72;2.72;;;;;;;22.75;46.61;101223.06;4957650;28;20062;-57
2023/06/14 09:08:08;;;;;;;9.88;3.25;;;;;;;22.93;45.60;101225.75;4955886;28;20054;-56
2023/06/14 09:10:37;;;;;;;5.93;3.22;;;;;;;23.14;43.88;101236.13;4965347;28;20571;-59
2023/06/14 09:13:05;;;;;;;7.53;2.83;;;;;;;23.23;42.81;101236.03;4963271;28;20122;-58
2023/06/14 09:15:33;;;;;;;7.80;3.03;;;;;;;23.36;43.12;101232.09;4944809;28;20411;-58
2023/06/14 09:18:03;;;;;;;10.80;2.95;;;;;;;23.47;42.72;101234.50;4946081;28;20058;-56
2023/06/14 09:20:31;;;;;;;8.85;2.10;;;;;;;23.53;42.44;101238.41;4964739;28;20177;-55
2023/06/14 09:23:00;;;;;;;8.32;3.05;;;;;;;23.52;42.44;101236.72;4963240;28;20047;-56
2023/06/14 09:25:28;;;;;;;5.55;2.53;;;;;;;23.40;42.74;101236.97;4964371;28;20074;-57
2023/06/14 09:28:08;;;;;;;5.05;2.88;;;;;;;23.46;42.66;101240.88;4963420;28;20081;-57
2023/06/14 09:30:37;;;;;;;4.45;2.72;;;;;;;23.44;42.69;101230.28;4944380;28;20142;-58
2023/06/14 09:33:04;;;;;;;8.75;3.22;;;;;;;23.51;42.82;101241.25;4965539;28;20062;-55
2023/06/14 09:35:32;;;;;;;7.63;2.97;;;;;;;23.60;42.95;101244.84;4947989;28;20057;-58
2023/06/14 09:37:59;;;;;;;5.85;2.85;;;;;;;23.64;42.86;101236.31;4961934;28;20054;-58
2023/06/14 09:40:27;;;;;;;5.90;3.05;;;;;;;23.67;42.48;101243.19;4968777;28;20467;-57
2023/06/14 09:42:57;;;;;;;9.90;3.10;;;;;;;23.77;42.36;101235.84;4972076;28;20057;-57
2023/06/14 09:45:28;;;;;;;7.88;3.38;;;;;;;23.94;42.22;101242.16;4964750;28;20055;-57
2023/06/14 09:47:57;;;;;;;14.43;3.17;;;;;;;24.09;42.05;101243.22;4968079;28;20145;-58
2023/06/14 09:50:34;;;;;;;8.40;3.42;;;;;;;24.22;41.72;101232.81;4970150;28;20499;-59
2023/06/14 09:53:12;;;;;;;5.15;2.97;;;;;;;24.21;40.83;101236.50;4972371;28;20070;-57
2023/06/14 09:55:40;;;;;;;5.88;3.00;;;;;;;24.35;40.87;101231.50;4968828;28;20055;-56
2023/06/14 09:58:10;;;;;;;8.85;3.20;;;;;;;24.45;40.67;101241.16;4965803;28;20515;-57
2023/06/14 10:00:39;;;;;;;7.55;3.45;;;;;;;24.41;40.33;101242.47;4966743;28;20070;-58
2023/06/14 10:03:28;;;;;;;6.00;3.13;;;;;;;24.39;40.29;101240.94;4966903;28;20064;-57
2023/06/14 10:06:02;;;;;;;7.45;3.20;;;;;;;24.41;40.14;101238.97;4974845;28;20565;-57
2023/06/14 10:08:33;;;;;;;6.80;3.22;;;;;;;24.43;39.80;101240.47;4972778;28;20059;-58
2023/06/14 10:11:00;;;;;;;6.45;3.17;;;;;;;24.34;40.11;101229.81;4969733;28;20051;-59
2023/06/14 10:13:29;;;;;;;8.57;3.53;;;;;;;24.26;40.32;101238.69;4950869;28;20065;-56
2023/06/14 10:16:10;;;;;;;7.07;3.00;;;;;;;24.31;40.46;101239.03;4946808;28;20073;-57
2023/06/14 10:19:04;;;;;;;9.82;3.88;;;;;;;24.32;40.75;101240.75;4964584;28;20065;-56
2023/06/14 10:21:48;;;;;;;9.98;3.20;;;;;;;24.39;40.54;101239.09;4942883;28;20057;-57
2023/06/14 10:24:18;;;;;;;10.82;3.15;;;;;;;24.26;40.12;101242.22;4963457;28;20031;-53
2023/06/14 10:26:53;;;;;;;4.97;2.97;;;;;;;24.14;40.85;101232.81;4972415;28;20221;-58
2023/06/14 10:29:24;;;;;;;12.45;3.63;;;;;;;24.16;40.81;101236.16;4968613;28;20069;-58
2023/06/14 10:31:56;;;;;;;4.70;3.05;;;;;;;24.08;40.75;101233.44;4964469;28;20149;-59
2023/06/14 10:34:25;;;;;;;5.82;2.92;;;;;;;24.18;40.43;101227.91;4965170;28;20043;-58
2023/06/14 10:37:12;;;;;;;5.45;2.78;;;;;;;24.19;40.09;101229.63;4969378;28;20055;-55
2023/06/14 10:39:41;;;;;;;5.65;2.72;;;;;;;24.11;40.20;101229.59;4970342;28;20511;-57
2023/06/14 10:42:09;;;;;;;8.05;3.55;;;;;;;24.07;40.11;101226.38;4974276;28;20109;-57
2023/06/14 10:44:37;;;;;;;8.68;3.65;;;;;;;24.04;39.86;101221.31;4966319;28;20150;-57
2023/06/14 10:47:08;;;;;;;8.00;3.00;;;;;;;23.93;40.68;101218.94;4968767;28;20038;-60
2023/06/14 10:49:40;;;;;;;9.98;4.22;;;;;;;23.96;40.20;101226.69;4977058;28;20062;-58
2023/06/14 10:52:16;;;;;;;9.93;3.33;;;;;;;24.01;40.07;101218.97;4965148;28;20141;-59
2023/06/14 10:55:10;;;;;;;10.90;3.58;;;;;;;24.15;39.67;101218.34;4977306;28;20137;-57
2023/06/14 10:57:42;;;;;;;13.38;3.53;;;;;;;24.32;39.43;101210.31;4966375;28;20046;-58
2023/06/14 11:00:16;;;;;;;7.53;3.53;;;;;;;24.49;39.31;101210.16;4970174;28;20100;-60
2023/06/14 11:03:03;;;;;;;9.73;3.00;;;;;;;24.76;38.47;101208.16;4967696;28;20126;-57
2023/06/14 11:05:30;;;;;;;6.65;2.80;;;;;;;24.95;38.44;101205.16;4965506;28;20047;-56
2023/06/14 11:08:31;;;;;;;9.15;4.03;;;;;;;25.11;38.02;101201.59;4962032;28;20059;-54
2023/06/14 11:11:00;;;;;;;11.65;4.25;;;;;;;25.23;37.92;101207.47;4969029;28;20194;-57
2023/06/14 11:13:28;;;;;;;6.85;3.50;;;;;;;25.38;37.82;101205.75;4966638;28;20142;-57
2023/06/14 11:15:58;;;;;;;11.00;2.90;;;;;;;25.56;37.26;101204.69;4946000;28;20058;-57
2023/06/14 11:18:27;;;;;;;11.23;3.33;;;;;;;25.65;37.14;101196.38;4966800;28;20065;-57
2023/06/14 11:20:55;;;;;;;12.30;3.60;;;;;;;25.80;36.56;101203.75;4969853;28;20063;-54
2023/06/14 11:23:23;;;;;;;9.93;3.42;;;;;;;25.85;35.94;101194.16;4967894;28;20525;-57
2023/06/14 11:25:53;;;;;;;7.13;3.05;;;;;;;25.94;36.21;101195.78;4963182;28;20895;-57
2023/06/14 11:28:23;;;;;;;8.95;3.63;;;;;;;26.09;36.42;101192.31;4964508;28;20146;-57
2023/06/14 11:31:00;;;;;;;4.90;3.30;;;;;;;26.30;35.79;101184.44;4962417;28;20206;-57
2023/06/14 11:33:28;;;;;;;8.52;3.15;;;;;;;26.51;35.32;101181.06;4964808;28;20116;-57
2023/06/14 11:35:55;;;;;;;13.00;3.95;;;;;;;26.49;34.95;101177.72;4964137;28;20145;-59